Time;durP1;ratioP1;P1;durP2;ratioP2;P2;SDS_P1;SDS_P2;PMS_P1;PMS_P2;Temp;Humidity;BMP_temperature;BMP_pressure;BME280_temperature;BME280_humidity;BME280_pressure;Samples;Min_cycle;Max_cycle;Signal;HPM_P1;HPM_P2
2023/08/21 00:01:41;;;;;;;;;;;25.70;61.60;;;;;;5076419;28;19974;-59
2023/08/21 00:04:08;;;;;;;;;;;25.70;61.60;;;;;;5075209;28;20327;-59
2023/08/21 00:06:35;;;;;;;;;;;25.70;61.60;;;;;;5075038;28;20376;-58
2023/08/21 00:09:02;;;;;;;;;;;25.70;61.60;;;;;;5075503;28;19976;-59
2023/08/21 00:11:29;;;;;;;;;;;25.70;61.70;;;;;;5095409;28;19924;-59
2023/08/21 00:13:56;;;;;;;;;;;25.70;61.70;;;;;;5095622;28;19924;-60
2023/08/21 00:16:23;;;;;;;;;;;25.60;61.60;;;;;;5095825;28;19924;-60
2023/08/21 00:18:50;;;;;;;;;;;25.70;61.70;;;;;;5095209;28;20032;-60
2023/08/21 00:21:17;;;;;;;;;;;25.60;61.70;;;;;;5096009;28;20345;-60
2023/08/21 00:23:44;;;;;;;;;;;25.60;61.60;;;;;;5096047;28;19959;-60
2023/08/21 00:26:11;;;;;;;;;;;25.60;61.70;;;;;;5095888;28;20015;-60
2023/08/21 00:28:38;;;;;;;;;;;25.60;61.70;;;;;;5095585;28;19959;-60
2023/08/21 00:31:06;;;;;;;;;;;25.60;61.70;;;;;;5095635;28;19924;-60
2023/08/21 00:33:33;;;;;;;;;;;25.60;61.70;;;;;;5095548;28;19939;-60
2023/08/21 00:36:00;;;;;;;;;;;25.60;61.70;;;;;;5095343;28;20011;-60
2023/08/21 00:38:27;;;;;;;;;;;25.60;61.70;;;;;;5095360;28;20023;-60
2023/08/21 00:40:54;;;;;;;;;;;25.60;61.70;;;;;;5095417;28;19955;-60
2023/08/21 00:43:21;;;;;;;;;;;25.60;61.70;;;;;;5095272;28;20335;-60
2023/08/21 00:45:49;;;;;;;;;;;25.60;61.70;;;;;;5095011;28;19934;-60
2023/08/21 00:48:17;;;;;;;;;;;25.60;61.70;;;;;;5095433;28;19993;-59
2023/08/21 00:50:44;;;;;;;;;;;25.60;61.70;;;;;;5094994;28;19924;-60
2023/08/21 00:53:11;;;;;;;;;;;25.60;61.80;;;;;;5095132;28;19924;-60
2023/08/21 00:55:39;;;;;;;;;;;25.60;61.70;;;;;;5095445;28;19962;-60
2023/08/21 00:58:06;;;;;;;;;;;25.60;61.70;;;;;;5094968;28;20334;-62
2023/08/21 01:00:34;;;;;;;;;;;25.60;61.80;;;;;;5094696;28;19977;-60
2023/08/21 01:03:01;;;;;;;;;;;25.60;61.80;;;;;;5095075;28;19924;-60
2023/08/21 01:05:28;;;;;;;;;;;25.50;61.70;;;;;;5095155;28;19994;-59
2023/08/21 01:08:03;;;;;;;;;;;25.60;61.80;;;;;;5094971;28;20276;-59
2023/08/21 01:10:50;;;;;;;;;;;25.60;61.80;;;;;;5094835;28;19924;-60
2023/08/21 01:13:29;;;;;;;;;;;25.60;61.80;;;;;;5092898;28;19928;-61
2023/08/21 01:15:57;;;;;;;;;;;25.60;61.80;;;;;;5094698;28;19971;-57
2023/08/21 01:18:26;;;;;;;;;;;25.60;61.80;;;;;;5094200;28;20347;-58
2023/08/21 01:20:54;;;;;;;;;;;25.60;61.80;;;;;;5094248;28;19960;-58
2023/08/21 01:23:32;;;;;;;;;;;25.50;61.70;;;;;;5094972;28;19924;-57
2023/08/21 01:25:59;;;;;;;;;;;25.60;61.80;;;;;;5094509;28;20019;-58
2023/08/21 01:28:26;;;;;;;;;;;25.60;61.80;;;;;;5093708;28;19924;-58
2023/08/21 01:31:10;;;;;;;;;;;25.50;61.70;;;;;;5094549;28;20466;-58
2023/08/21 01:33:42;;;;;;;;;;;25.60;61.70;;;;;;5094441;28;20371;-58
2023/08/21 01:36:09;;;;;;;;;;;25.60;61.60;;;;;;5094142;28;20383;-58
2023/08/21 01:38:36;;;;;;;;;;;25.60;61.60;;;;;;5094655;28;19924;-58
2023/08/21 01:41:04;;;;;;;;;;;25.60;61.60;;;;;;5094320;28;19928;-57
2023/08/21 01:43:31;;;;;;;;;;;25.60;61.60;;;;;;5094199;28;19977;-57
2023/08/21 01:45:58;;;;;;;;;;;25.60;61.60;;;;;;5093683;28;20364;-58
2023/08/21 01:48:25;;;;;;;;;;;25.60;61.60;;;;;;5094200;28;19977;-58
2023/08/21 01:50:51;;;;;;;;;;;25.60;61.60;;;;;;5094399;28;19966;-58
2023/08/21 01:53:19;;;;;;;;;;;25.60;61.60;;;;;;5094306;28;19981;-58
2023/08/21 01:55:45;;;;;;;;;;;25.60;61.50;;;;;;5093627;28;19961;-57
2023/08/21 01:58:12;;;;;;;;;;;25.60;61.60;;;;;;5094340;28;19924;-58
2023/08/21 02:00:40;;;;;;;;;;;25.60;61.50;;;;;;5094222;28;20342;-57
2023/08/21 02:03:07;;;;;;;;;;;25.60;61.50;;;;;;5093753;28;19970;-58
2023/08/21 02:05:38;;;;;;;;;;;25.60;61.50;;;;;;5094293;28;19924;-58
2023/08/21 02:08:10;;;;;;;;;;;25.60;61.50;;;;;;5093960;28;19947;-58
2023/08/21 02:10:37;;;;;;;;;;;25.60;61.50;;;;;;5094061;28;19924;-58
2023/08/21 02:13:04;;;;;;;;;;;25.60;61.50;;;;;;5094160;28;19924;-58
2023/08/21 02:15:31;;;;;;;;;;;25.60;61.50;;;;;;5093845;28;19969;-58
2023/08/21 02:17:58;;;;;;;;;;;25.60;61.50;;;;;;5093852;28;19924;-58
2023/08/21 02:20:25;;;;;;;;;;;25.60;61.50;;;;;;5093104;28;19924;-58
2023/08/21 02:22:52;;;;;;;;;;;25.60;61.60;;;;;;5093561;28;19924;-58
2023/08/21 02:25:19;;;;;;;;;;;25.60;61.60;;;;;;5093529;28;19968;-58
2023/08/21 02:27:46;;;;;;;;;;;25.50;61.50;;;;;;5093268;28;19924;-58
2023/08/21 02:30:14;;;;;;;;;;;25.60;61.60;;;;;;5093713;28;19928;-57
2023/08/21 02:32:41;;;;;;;;;;;25.60;61.60;;;;;;5098120;28;19927;-58
2023/08/21 02:35:08;;;;;;;;;;;25.50;61.60;;;;;;5099139;28;19930;-58
2023/08/21 02:37:38;;;;;;;;;;;25.60;61.70;;;;;;5100362;28;20325;-58
2023/08/21 02:40:08;;;;;;;;;;;25.50;61.60;;;;;;5100224;28;19924;-58
2023/08/21 02:42:35;;;;;;;;;;;25.50;61.60;;;;;;5100186;28;19971;-58
2023/08/21 02:45:07;;;;;;;;;;;25.50;61.70;;;;;;5100535;28;20277;-58
2023/08/21 02:47:35;;;;;;;;;;;25.50;61.60;;;;;;5100355;28;19985;-58
2023/08/21 02:50:03;;;;;;;;;;;25.50;61.70;;;;;;5100134;28;19975;-58
2023/08/21 02:52:31;;;;;;;;;;;25.50;61.60;;;;;;5100353;28;19928;-57
2023/08/21 02:54:58;;;;;;;;;;;25.50;61.70;;;;;;5100252;28;19967;-58
2023/08/21 02:57:26;;;;;;;;;;;25.50;61.70;;;;;;5100100;28;20533;-60
2023/08/21 02:59:54;;;;;;;;;;;25.50;61.70;;;;;;5100497;28;19964;-58
2023/08/21 03:02:21;;;;;;;;;;;25.50;61.70;;;;;;5100122;28;20319;-58
2023/08/21 03:04:48;;;;;;;;;;;25.50;61.70;;;;;;5100422;28;20347;-58
2023/08/21 03:07:15;;;;;;;;;;;25.50;61.70;;;;;;5100199;28;19924;-58
2023/08/21 03:09:42;;;;;;;;;;;25.50;61.70;;;;;;5099969;28;19982;-57
2023/08/21 03:12:09;;;;;;;;;;;25.50;61.70;;;;;;5100064;28;20292;-58
2023/08/21 03:14:36;;;;;;;;;;;25.50;61.70;;;;;;5098674;28;20345;-57
2023/08/21 03:17:05;;;;;;;;;;;25.50;61.70;;;;;;5098971;28;21455;-58
2023/08/21 03:19:32;;;;;;;;;;;25.50;61.70;;;;;;5099941;28;20303;-58
2023/08/21 03:21:59;;;;;;;;;;;25.40;61.60;;;;;;5100177;28;20326;-58
2023/08/21 03:24:26;;;;;;;;;;;25.50;61.70;;;;;;5099713;28;19928;-58
2023/08/21 03:26:53;;;;;;;;;;;25.40;61.60;;;;;;5099027;28;19928;-57
2023/08/21 03:29:20;;;;;;;;;;;25.50;61.70;;;;;;5100025;28;19940;-58
2023/08/21 03:31:52;;;;;;;;;;;25.50;61.70;;;;;;5100182;28;19924;-57
2023/08/21 03:34:19;;;;;;;;;;;25.50;61.70;;;;;;5100024;28;19931;-58
2023/08/21 03:36:46;;;;;;;;;;;25.50;61.70;;;;;;5098705;28;19931;-58
2023/08/21 03:39:13;;;;;;;;;;;25.40;62.20;;;;;;5100183;28;19924;-57
2023/08/21 03:41:40;;;;;;;;;;;25.40;61.70;;;;;;5098862;28;19928;-58
2023/08/21 03:44:07;;;;;;;;;;;25.40;61.70;;;;;;5087977;28;19924;-58
2023/08/21 03:46:34;;;;;;;;;;;25.50;61.70;;;;;;5076146;28;19974;-58
2023/08/21 03:49:01;;;;;;;;;;;25.40;61.70;;;;;;5075967;28;19932;-58
2023/08/21 03:51:28;;;;;;;;;;;25.50;62.30;;;;;;5077034;28;19928;-57
2023/08/21 03:53:55;;;;;;;;;;;25.40;61.70;;;;;;5075416;28;20438;-57
2023/08/21 03:56:23;;;;;;;;;;;25.50;61.70;;;;;;5078365;28;19986;-57
2023/08/21 03:58:50;;;;;;;;;;;25.50;61.70;;;;;;5086528;28;20323;-58
2023/08/21 04:01:17;;;;;;;;;;;25.50;61.60;;;;;;5075739;28;20030;-58
2023/08/21 04:03:44;;;;;;;;;;;25.50;61.60;;;;;;5076220;28;19936;-57
2023/08/21 04:06:11;;;;;;;;;;;25.50;61.60;;;;;;5075521;28;20386;-58
2023/08/21 04:08:38;;;;;;;;;;;25.50;61.50;;;;;;5074063;28;19968;-58
2023/08/21 04:11:05;;;;;;;;;;;25.50;61.50;;;;;;5085633;28;20018;-57
2023/08/21 04:13:32;;;;;;;;;;;25.50;61.40;;;;;;5076006;28;20331;-57
2023/08/21 04:15:59;;;;;;;;;;;25.50;61.40;;;;;;5074651;28;19929;-57
2023/08/21 04:18:26;;;;;;;;;;;25.50;61.30;;;;;;5075899;28;19979;-58
2023/08/21 04:21:07;;;;;;;;;;;25.50;61.30;;;;;;5075808;28;19928;-58
2023/08/21 04:23:34;;;;;;;;;;;25.60;61.30;;;;;;5075509;28;19924;-58
2023/08/21 04:26:02;;;;;;;;;;;25.60;61.30;;;;;;5077120;28;19977;-57
2023/08/21 04:28:30;;;;;;;;;;;25.60;61.20;;;;;;5085259;28;20396;-58
2023/08/21 04:30:57;;;;;;;;;;;25.60;61.20;;;;;;5075248;28;19925;-58
2023/08/21 04:33:26;;;;;;;;;;;25.70;61.20;;;;;;5077966;28;19982;-57
2023/08/21 04:35:53;;;;;;;;;;;25.60;61.00;;;;;;5094638;28;19924;-58
2023/08/21 04:38:20;;;;;;;;;;;25.60;61.20;;;;;;5095090;28;19932;-61
2023/08/21 04:40:47;;;;;;;;;;;25.50;61.30;;;;;;5093301;28;19977;-58
2023/08/21 04:43:14;;;;;;;;;;;25.40;61.40;;;;;;5095023;28;19975;-57
2023/08/21 04:45:48;;;;;;;;;;;25.20;60.00;;;;;;5087161;28;20326;-57
2023/08/21 04:48:15;;;;;;;;;;;25.00;58.20;;;;;;5085177;28;19924;-57
2023/08/21 04:50:42;;;;;;;;;;;24.70;56.30;;;;;;5084038;28;19924;-57
2023/08/21 04:53:09;;;;;;;;;;;24.40;54.80;;;;;;5079015;28;19925;-57
2023/08/21 04:55:36;;;;;;;;;;;24.10;53.00;;;;;;5073695;28;19925;-58
2023/08/21 04:58:04;;;;;;;;;;;23.80;52.20;;;;;;5077690;28;20442;-58
2023/08/21 05:00:31;;;;;;;;;;;23.60;51.70;;;;;;5074518;28;19924;-58
2023/08/21 05:02:58;;;;;;;;;;;23.30;51.20;;;;;;5074394;28;19924;-57
2023/08/21 05:05:25;;;;;;;;;;;23.00;50.70;;;;;;5073910;28;20371;-58
2023/08/21 05:07:53;;;;;;;;;;;22.70;52.00;;;;;;5073131;28;19925;-57
2023/08/21 05:10:20;;;;;;;;;;;22.50;50.70;;;;;;5075072;28;19936;-58
2023/08/21 05:12:47;;;;;;;;;;;22.20;51.90;;;;;;5073702;28;19928;-60
2023/08/21 05:15:14;;;;;;;;;;;21.90;50.40;;;;;;5079313;28;20402;-58
2023/08/21 05:17:41;;;;;;;;;;;21.70;51.10;;;;;;5080499;28;19928;-60
2023/08/21 05:20:09;;;;;;;;;;;21.50;52.80;;;;;;5080474;28;19928;-59
2023/08/21 05:22:36;;;;;;;;;;;21.30;52.70;;;;;;5083983;28;19977;-59
2023/08/21 05:25:05;;;;;;;;;;;21.10;52.50;;;;;;5076309;28;19928;-59
2023/08/21 05:27:32;;;;;;;;;;;21.00;52.20;;;;;;5078602;28;20376;-59
2023/08/21 05:29:59;;;;;;;;;;;20.80;52.90;;;;;;5067969;28;19932;-62
2023/08/21 05:32:26;;;;;;;;;;;20.60;53.30;;;;;;5074805;28;20035;-60
2023/08/21 05:34:53;;;;;;;;;;;20.60;53.30;;;;;;5075506;28;19931;-61
2023/08/21 05:37:20;;;;;;;;;;;20.40;54.10;;;;;;5071983;28;19932;-61
2023/08/21 05:39:48;;;;;;;;;;;20.40;54.60;;;;;;5071572;28;19978;-61
2023/08/21 05:42:15;;;;;;;;;;;20.30;56.00;;;;;;5074277;28;19928;-61
2023/08/21 05:44:42;;;;;;;;;;;20.20;54.00;;;;;;5078899;28;19924;-62
2023/08/21 05:47:09;;;;;;;;;;;20.10;56.10;;;;;;5075639;28;19963;-63
2023/08/21 05:49:36;;;;;;;;;;;20.10;55.80;;;;;;5073995;28;19959;-62
2023/08/21 05:52:03;;;;;;;;;;;20.10;58.80;;;;;;5069374;28;19932;-63
2023/08/21 05:54:30;;;;;;;;;;;20.10;61.70;;;;;;5073377;28;19989;-63
2023/08/21 05:56:58;;;;;;;;;;;20.00;60.40;;;;;;5068087;28;19955;-63
2023/08/21 05:59:30;;;;;;;;;;;20.00;56.90;;;;;;5070764;28;19928;-60
2023/08/21 06:01:57;;;;;;;;;;;20.00;62.80;;;;;;5070717;28;20392;-61
2023/08/21 06:04:24;;;;;;;;;;;19.90;63.30;;;;;;5067509;28;19958;-60
2023/08/21 06:06:52;;;;;;;;;;;19.90;63.50;;;;;;5069365;28;19951;-60
2023/08/21 06:09:19;;;;;;;;;;;19.90;64.10;;;;;;5069107;28;19924;-60
2023/08/21 06:11:46;;;;;;;;;;;19.80;64.40;;;;;;5069272;28;19940;-61
2023/08/21 06:14:13;;;;;;;;;;;19.80;60.30;;;;;;5072480;28;19950;-60
2023/08/21 06:16:43;;;;;;;;;;;19.80;60.70;;;;;;5070905;28;19937;-60
2023/08/21 06:19:10;;;;;;;;;;;19.80;61.30;;;;;;5070062;28;19924;-60
2023/08/21 06:21:37;;;;;;;;;;;19.90;63.00;;;;;;5075350;28;19932;-61
2023/08/21 06:24:04;;;;;;;;;;;19.90;60.50;;;;;;5069909;28;20437;-60
2023/08/21 06:26:31;;;;;;;;;;;19.90;63.80;;;;;;5071303;28;19989;-60
2023/08/21 06:28:59;;;;;;;;;;;19.90;64.20;;;;;;5069470;28;19932;-60
2023/08/21 06:31:26;;;;;;;;;;;19.90;64.30;;;;;;5072691;28;19932;-60
2023/08/21 06:33:53;;;;;;;;;;;19.90;64.00;;;;;;5072751;28;19932;-60
2023/08/21 06:36:20;;;;;;;;;;;20.00;62.00;;;;;;5076438;28;19928;-60
2023/08/21 06:38:48;;;;;;;;;;;20.00;64.40;;;;;;5070349;28;19937;-60
2023/08/21 06:41:15;;;;;;;;;;;20.00;64.10;;;;;;5071992;28;19977;-60
2023/08/21 06:43:42;;;;;;;;;;;20.00;64.50;;;;;;5072086;28;19924;-60
2023/08/21 06:46:11;;;;;;;;;;;20.00;64.70;;;;;;5075158;28;19974;-61
2023/08/21 06:48:40;;;;;;;;;;;20.00;66.00;;;;;;5074632;28;20388;-60
2023/08/21 06:51:07;;;;;;;;;;;20.10;64.50;;;;;;5070554;28;19932;-61
2023/08/21 06:53:35;;;;;;;;;;;20.10;65.60;;;;;;5077793;28;20004;-60
2023/08/21 06:56:02;;;;;;;;;;;20.20;62.90;;;;;;5076342;28;19964;-60
2023/08/21 06:58:29;;;;;;;;;;;20.20;64.20;;;;;;5077996;28;20375;-60
2023/08/21 07:00:56;;;;;;;;;;;20.20;62.10;;;;;;5070199;28;20414;-61
2023/08/21 07:03:23;;;;;;;;;;;20.30;61.10;;;;;;5071723;28;19986;-62
2023/08/21 07:05:55;;;;;;;;;;;20.30;61.70;;;;;;5070681;28;21933;-58
2023/08/21 07:08:23;;;;;;;;;;;20.40;64.20;;;;;;5070918;28;20458;-58
2023/08/21 07:10:50;;;;;;;;;;;20.40;63.50;;;;;;5073347;28;19936;-59
2023/08/21 07:13:17;;;;;;;;;;;20.40;63.30;;;;;;5076910;28;20427;-58
2023/08/21 07:15:44;;;;;;;;;;;20.50;62.30;;;;;;5080668;28;20277;-58
2023/08/21 07:18:11;;;;;;;;;;;20.60;63.80;;;;;;5081029;28;19928;-58
2023/08/21 07:20:38;;;;;;;;;;;20.60;64.10;;;;;;5079841;28;20480;-59
2023/08/21 07:23:06;;;;;;;;;;;20.70;62.80;;;;;;5079424;28;19928;-63
2023/08/21 07:25:32;;;;;;;;;;;20.80;62.60;;;;;;5082506;28;19928;-58
2023/08/21 07:28:00;;;;;;;;;;;20.80;63.00;;;;;;5078414;28;21282;-59
2023/08/21 07:30:27;;;;;;;;;;;20.90;63.20;;;;;;5073452;28;19936;-59
2023/08/21 07:32:54;;;;;;;;;;;21.00;62.30;;;;;;5072865;28;19973;-59
2023/08/21 07:35:21;;;;;;;;;;;21.00;62.20;;;;;;5073101;28;19924;-59
2023/08/21 07:37:48;;;;;;;;;;;21.10;62.10;;;;;;5078038;28;19968;-59
2023/08/21 07:40:16;;;;;;;;;;;21.10;61.30;;;;;;5078159;28;20351;-59
2023/08/21 07:42:43;;;;;;;;;;;21.20;61.40;;;;;;5073731;28;19940;-60
2023/08/21 07:45:11;;;;;;;;;;;21.20;61.30;;;;;;5071350;28;19932;-59
2023/08/21 07:47:38;;;;;;;;;;;21.20;61.40;;;;;;5071830;28;20019;-59
2023/08/21 07:50:08;;;;;;;;;;;21.20;60.90;;;;;;5079164;28;19930;-59
2023/08/21 07:52:36;;;;;;;;;;;21.30;61.60;;;;;;5071966;28;20023;-59
2023/08/21 07:55:03;;;;;;;;;;;21.30;60.70;;;;;;5069716;28;19972;-59
2023/08/21 07:57:30;;;;;;;;;;;21.30;61.50;;;;;;5078894;28;20373;-60
2023/08/21 07:59:58;;;;;;;;;;;21.30;60.60;;;;;;5075916;28;20373;-59
2023/08/21 08:02:25;;;;;;;;;;;21.30;61.20;;;;;;5070418;28;20330;-59
2023/08/21 08:04:53;;;;;;;;;;;21.30;61.60;;;;;;5066292;28;19932;-59
2023/08/21 08:07:20;;;;;;;;;;;21.30;60.90;;;;;;5080952;28;20087;-61
2023/08/21 08:09:47;;;;;;;;;;;21.30;61.80;;;;;;5076452;28;20059;-60
2023/08/21 08:12:14;;;;;;;;;;;21.30;61.30;;;;;;5072904;28;19925;-60
2023/08/21 08:14:41;;;;;;;;;;;21.30;60.20;;;;;;5075912;28;19929;-61
2023/08/21 08:17:08;;;;;;;;;;;21.30;63.10;;;;;;5078741;28;20021;-61
2023/08/21 08:19:35;;;;;;;;;;;21.30;62.80;;;;;;5075456;28;19932;-61
2023/08/21 08:22:02;;;;;;;;;;;21.30;61.50;;;;;;5073910;28;19932;-61
2023/08/21 08:24:29;;;;;;;;;;;21.30;63.40;;;;;;5078945;28;19963;-61
2023/08/21 08:26:57;;;;;;;;;;;21.30;63.10;;;;;;5077164;28;19962;-60
2023/08/21 08:29:23;;;;;;;;;;;21.30;60.30;;;;;;5072169;28;20407;-59
2023/08/21 08:31:50;;;;;;;;;;;21.30;60.10;;;;;;5073887;28;20015;-60
2023/08/21 08:34:20;;;;;;;;;;;21.30;60.00;;;;;;5072151;28;19929;-59
2023/08/21 08:36:47;;;;;;;;;;;21.30;61.10;;;;;;5079465;28;20349;-61
2023/08/21 08:39:14;;;;;;;;;;;21.30;60.10;;;;;;5071962;28;19963;-61
2023/08/21 08:41:47;;;;;;;;;;;21.30;61.60;;;;;;5075227;28;19931;-61
2023/08/21 08:44:16;;;;;;;;;;;21.30;62.30;;;;;;5084700;28;19975;-58
2023/08/21 08:46:42;;;;;;;;;;;21.20;60.50;;;;;;5077674;28;19976;-58
2023/08/21 08:49:09;;;;;;;;;;;21.20;61.70;;;;;;5076491;28;20619;-59
2023/08/21 08:51:37;;;;;;;;;;;21.30;59.50;;;;;;5076643;28;19989;-59
2023/08/21 08:54:05;;;;;;;;;;;21.20;60.50;;;;;;5076173;28;19975;-58
2023/08/21 08:56:32;;;;;;;;;;;21.20;60.10;;;;;;5078089;28;19933;-58
2023/08/21 08:58:58;;;;;;;;;;;21.30;60.30;;;;;;5075928;28;19925;-59
2023/08/21 09:01:25;;;;;;;;;;;21.20;60.50;;;;;;5070157;28;19962;-59
2023/08/21 09:03:53;;;;;;;;;;;21.20;62.70;;;;;;5076569;28;19932;-58
2023/08/21 09:06:20;;;;;;;;;;;21.20;60.00;;;;;;5072581;28;20569;-59
2023/08/21 09:08:54;;;;;;;;;;;21.20;60.50;;;;;;5074393;28;19987;-58
2023/08/21 09:11:22;;;;;;;;;;;21.30;60.30;;;;;;5075969;28;20916;-58
2023/08/21 09:13:50;;;;;;;;;;;21.20;60.40;;;;;;5075801;28;19924;-59
2023/08/21 09:16:18;;;;;;;;;;;21.20;61.10;;;;;;5075595;28;20030;-58
2023/08/21 09:18:47;;;;;;;;;;;21.20;60.00;;;;;;5075864;28;19933;-59
2023/08/21 09:21:21;;;;;;;;;;;21.20;61.80;;;;;;5076900;28;19989;-58
2023/08/21 09:23:49;;;;;;;;;;;21.20;62.30;;;;;;5079753;28;20315;-59
2023/08/21 09:26:23;;;;;;;;;;;21.30;62.60;;;;;;5078003;28;20098;-59
2023/08/21 09:28:51;;;;;;;;;;;21.30;62.80;;;;;;5080354;28;19959;-60
2023/08/21 09:31:23;;;;;;;;;;;21.30;60.70;;;;;;5074589;28;20383;-58
2023/08/21 09:33:57;;;;;;;;;;;21.30;60.80;;;;;;5076583;28;19981;-58
2023/08/21 09:36:24;;;;;;;;;;;21.30;61.00;;;;;;5073846;28;19999;-60
2023/08/21 09:38:52;;;;;;;;;;;21.30;60.20;;;;;;5075761;28;19938;-60
2023/08/21 09:41:20;;;;;;;;;;;21.40;61.00;;;;;;5072836;28;19928;-59
2023/08/21 09:43:47;;;;;;;;;;;21.40;63.00;;;;;;5070893;28;19986;-59
2023/08/21 09:46:18;;;;;;;;;;;21.40;61.30;;;;;;5079134;28;19939;-59
2023/08/21 09:48:46;;;;;;;;;;;21.40;61.70;;;;;;5077654;28;19954;-60
2023/08/21 09:51:13;;;;;;;;;;;21.40;60.60;;;;;;5076343;28;19975;-59
2023/08/21 09:53:40;;;;;;;;;;;21.40;59.50;;;;;;5080108;28;20388;-60
2023/08/21 09:56:08;;;;;;;;;;;21.50;60.00;;;;;;5081794;28;19924;-60
2023/08/21 09:58:36;;;;;;;;;;;21.50;60.90;;;;;;5074102;28;19931;-60
2023/08/21 10:01:11;;;;;;;;;;;21.50;59.40;;;;;;5080510;28;19986;-60
2023/08/21 10:03:39;;;;;;;;;;;21.50;60.80;;;;;;5076447;28;20353;-60
2023/08/21 10:06:08;;;;;;;;;;;21.50;60.30;;;;;;5074374;28;20044;-60
2023/08/21 10:08:36;;;;;;;;;;;21.50;60.60;;;;;;5078510;28;20396;-60
2023/08/21 10:11:04;;;;;;;;;;;21.50;59.60;;;;;;5080626;28;19961;-60
2023/08/21 10:13:33;;;;;;;;;;;21.50;60.50;;;;;;5072224;28;19968;-60
2023/08/21 10:16:00;;;;;;;;;;;21.50;60.50;;;;;;5073956;28;20019;-60
2023/08/21 10:18:32;;;;;;;;;;;21.50;60.00;;;;;;5075668;28;20529;-60
2023/08/21 10:21:14;;;;;;;;;;;21.50;60.40;;;;;;5077149;28;20418;-59
2023/08/21 10:23:41;;;;;;;;;;;21.50;61.20;;;;;;5074339;28;19970;-60
2023/08/21 10:26:11;;;;;;;;;;;21.50;60.10;;;;;;5073070;28;20260;-59
2023/08/21 10:28:43;;;;;;;;;;;21.50;60.90;;;;;;5071679;28;19962;-59
2023/08/21 10:31:30;;;;;;;;;;;21.50;60.40;;;;;;5067608;28;19940;-59
2023/08/21 10:33:59;;;;;;;;;;;21.50;60.00;;;;;;5072045;28;19958;-59
2023/08/21 10:36:45;;;;;;;;;;;21.60;60.50;;;;;;5070685;28;20022;-59
2023/08/21 10:39:24;;;;;;;;;;;21.60;61.00;;;;;;5069897;28;20237;-59
2023/08/21 10:42:03;;;;;;;;;;;21.60;60.80;;;;;;5074601;28;19928;-61
2023/08/21 10:44:50;;;;;;;;;;;21.60;59.90;;;;;;5076169;28;19924;-58
2023/08/21 10:47:31;;;;;;;;;;;21.60;59.90;;;;;;5072507;28;19935;-58
2023/08/21 10:50:01;;;;;;;;;;;21.60;61.60;;;;;;5070750;28;20038;-58
2023/08/21 10:52:29;;;;;;;;;;;21.60;62.10;;;;;;5072492;28;20006;-58
2023/08/21 10:54:57;;;;;;;;;;;21.60;60.80;;;;;;5073846;28;20368;-59
2023/08/21 10:57:24;;;;;;;;;;;21.60;61.00;;;;;;5077954;28;19986;-59
2023/08/21 10:59:53;;;;;;;;;;;21.60;59.40;;;;;;5075605;28;19981;-59
2023/08/21 11:02:20;;;;;;;;;;;21.60;61.00;;;;;;5074104;28;19967;-58
2023/08/21 11:04:48;;;;;;;;;;;21.60;58.70;;;;;;5071328;28;19933;-58
2023/08/21 11:07:15;;;;;;;;;;;21.60;58.90;;;;;;5075025;28;19931;-59
2023/08/21 11:09:42;;;;;;;;;;;21.60;61.30;;;;;;5075584;28;20027;-59
2023/08/21 11:12:11;;;;;;;;;;;21.50;59.70;;;;;;5081698;28;20036;-58
2023/08/21 11:14:38;;;;;;;;;;;21.60;58.80;;;;;;5075131;28;19936;-59
2023/08/21 11:17:05;;;;;;;;;;;21.60;60.00;;;;;;5078394;28;20007;-59
2023/08/21 11:19:33;;;;;;;;;;;21.60;60.30;;;;;;5080798;28;19968;-58
2023/08/21 11:22:04;;;;;;;;;;;21.60;59.00;;;;;;5079071;28;19924;-58
2023/08/21 11:24:38;;;;;;;;;;;21.60;59.30;;;;;;5072526;28;20396;-62
2023/08/21 11:27:05;;;;;;;;;;;21.60;59.00;;;;;;5076421;28;20015;-62
2023/08/21 11:29:39;;;;;;;;;;;21.60;60.00;;;;;;5083841;28;19986;-58
2023/08/21 11:32:10;;;;;;;;;;;21.60;59.70;;;;;;5076159;28;19929;-58
2023/08/21 11:34:37;;;;;;;;;;;21.60;58.50;;;;;;5080720;28;19982;-58
2023/08/21 11:37:05;;;;;;;;;;;21.70;59.60;;;;;;5086131;28;20440;-61
2023/08/21 11:39:43;;;;;;;;;;;21.70;58.70;;;;;;5076015;28;19928;-58
2023/08/21 11:42:12;;;;;;;;;;;21.70;58.20;;;;;;5080283;28;20422;-62
2023/08/21 11:44:40;;;;;;;;;;;21.70;59.80;;;;;;5078116;28;19928;-60
2023/08/21 11:47:07;;;;;;;;;;;21.70;59.00;;;;;;5073537;28;19944;-61
2023/08/21 11:49:35;;;;;;;;;;;21.70;58.80;;;;;;5078447;28;20291;-60
2023/08/21 11:52:03;;;;;;;;;;;21.70;59.20;;;;;;5076053;28;19932;-61
2023/08/21 11:54:35;;;;;;;;;;;21.70;58.70;;;;;;5075618;28;19932;-62
2023/08/21 11:57:05;;;;;;;;;;;21.80;58.50;;;;;;5071566;28;19928;-61
2023/08/21 11:59:32;;;;;;;;;;;21.70;58.80;;;;;;5075415;28;19924;-65
2023/08/21 12:01:59;;;;;;;;;;;21.80;58.60;;;;;;5076906;28;20369;-63
2023/08/21 12:04:27;;;;;;;;;;;21.80;58.50;;;;;;5079010;28;19925;-61
2023/08/21 12:06:54;;;;;;;;;;;21.80;58.70;;;;;;5074723;28;21141;-60
2023/08/21 12:09:21;;;;;;;;;;;21.80;58.40;;;;;;5070092;28;19954;-62
2023/08/21 12:11:48;;;;;;;;;;;21.80;58.40;;;;;;5077902;28;21298;-60
2023/08/21 12:14:15;;;;;;;;;;;21.80;58.90;;;;;;5075159;28;20011;-61
2023/08/21 12:16:42;;;;;;;;;;;21.70;58.50;;;;;;5073109;28;19946;-61
2023/08/21 12:19:09;;;;;;;;;;;21.70;58.50;;;;;;5075348;28;19932;-63
2023/08/21 12:21:37;;;;;;;;;;;21.70;57.70;;;;;;5078818;28;19989;-62
2023/08/21 12:24:06;;;;;;;;;;;21.70;59.50;;;;;;5074812;28;19932;-62
2023/08/21 12:26:33;;;;;;;;;;;21.70;58.60;;;;;;5071861;28;19933;-60
2023/08/21 12:29:11;;;;;;;;;;;21.70;58.00;;;;;;5078423;28;20015;-65
2023/08/21 12:31:37;;;;;;;;;;;21.70;59.10;;;;;;5075772;28;20007;-61
2023/08/21 12:34:04;;;;;;;;;;;21.70;58.80;;;;;;5081702;28;19933;-62
2023/08/21 12:36:34;;;;;;;;;;;21.70;59.20;;;;;;5075753;28;20463;-62
2023/08/21 12:39:03;;;;;;;;;;;21.60;58.10;;;;;;5077510;28;20347;-61
2023/08/21 12:41:30;;;;;;;;;;;21.70;57.90;;;;;;5071470;28;19931;-60
2023/08/21 12:43:57;;;;;;;;;;;21.60;57.60;;;;;;5078310;28;19936;-60
2023/08/21 12:46:26;;;;;;;;;;;21.70;59.80;;;;;;5077071;28;20007;-60
2023/08/21 12:48:53;;;;;;;;;;;21.70;58.00;;;;;;5070189;28;21034;-60
2023/08/21 12:51:21;;;;;;;;;;;21.70;59.20;;;;;;5076336;28;20346;-61
2023/08/21 12:53:48;;;;;;;;;;;21.70;58.20;;;;;;5074439;28;19928;-59
2023/08/21 12:56:16;;;;;;;;;;;21.70;58.60;;;;;;5074427;28;19935;-59
2023/08/21 12:58:43;;;;;;;;;;;21.70;58.40;;;;;;5075208;28;19928;-59
2023/08/21 13:01:10;;;;;;;;;;;21.80;58.50;;;;;;5073741;28;20300;-59
2023/08/21 13:03:38;;;;;;;;;;;21.80;58.60;;;;;;5076035;28;19962;-59
2023/08/21 13:06:05;;;;;;;;;;;21.80;58.00;;;;;;5075608;28;19928;-59
2023/08/21 13:08:32;;;;;;;;;;;21.70;58.10;;;;;;5079268;28;19932;-58
2023/08/21 13:11:00;;;;;;;;;;;21.70;58.00;;;;;;5082456;28;19931;-58
2023/08/21 13:13:27;;;;;;;;;;;21.70;57.70;;;;;;5080948;28;19928;-59
2023/08/21 13:15:55;;;;;;;;;;;21.70;57.80;;;;;;5077443;28;20015;-58
2023/08/21 13:18:22;;;;;;;;;;;21.70;60.00;;;;;;5072826;28;19928;-59
2023/08/21 13:20:49;;;;;;;;;;;21.70;58.90;;;;;;5077813;28;19974;-59
2023/08/21 13:23:16;;;;;;;;;;;21.80;58.30;;;;;;5074584;28;19936;-58
2023/08/21 13:25:43;;;;;;;;;;;21.80;58.40;;;;;;5077124;28;19974;-57
2023/08/21 13:28:10;;;;;;;;;;;21.70;58.30;;;;;;5079359;28;20330;-59
2023/08/21 13:30:37;;;;;;;;;;;21.80;58.60;;;;;;5087395;28;20027;-59
2023/08/21 13:33:04;;;;;;;;;;;21.80;57.90;;;;;;5076784;28;19968;-59
2023/08/21 13:35:32;;;;;;;;;;;21.70;58.30;;;;;;5071915;28;19932;-59
2023/08/21 13:37:59;;;;;;;;;;;21.70;57.10;;;;;;5080710;28;19972;-59
2023/08/21 13:40:26;;;;;;;;;;;21.80;59.20;;;;;;5079690;28;19928;-59
2023/08/21 13:42:53;;;;;;;;;;;21.70;57.30;;;;;;5076469;28;19930;-60
2023/08/21 13:45:22;;;;;;;;;;;21.80;57.40;;;;;;5076467;28;20276;-60
2023/08/21 13:47:49;;;;;;;;;;;21.80;57.60;;;;;;5074734;28;19932;-60
2023/08/21 13:50:17;;;;;;;;;;;21.80;57.70;;;;;;5073712;28;19928;-59
2023/08/21 13:52:45;;;;;;;;;;;21.80;58.00;;;;;;5074102;28;19982;-60
2023/08/21 13:55:13;;;;;;;;;;;21.80;58.80;;;;;;5082337;28;19967;-60
2023/08/21 13:57:40;;;;;;;;;;;21.80;60.40;;;;;;5077668;28;19928;-59
2023/08/21 14:00:11;;;;;;;;;;;21.70;59.60;;;;;;5072116;28;20317;-60
2023/08/21 14:02:40;;;;;;;;;;;21.80;60.00;;;;;;5068861;28;19986;-59
2023/08/21 14:05:08;;;;;;;;;;;21.70;61.00;;;;;;5071365;28;19969;-61
2023/08/21 14:07:35;;;;;;;;;;;21.90;69.50;;;;;;5068225;28;19973;-60
2023/08/21 14:10:04;;;;;;;;;;;22.10;75.40;;;;;;5068539;28;19935;-60
2023/08/21 14:12:31;;;;;;;;;;;22.50;76.70;;;;;;5073057;28;19947;-60
2023/08/21 14:14:59;;;;;;;;;;;22.70;77.40;;;;;;5070166;28;19930;-60
2023/08/21 14:17:26;;;;;;;;;;;23.10;77.40;;;;;;5072439;28;19940;-60
2023/08/21 14:19:54;;;;;;;;;;;23.30;77.00;;;;;;5073284;28;20007;-60
2023/08/21 14:22:21;;;;;;;;;;;23.60;76.80;;;;;;5074228;28;19924;-62